Time,TemperatureF,DewpointF,PressureIn,WindDirection,WindDirectionDegrees,WindSpeedMPH,WindSpeedGustMPH,Humidity,HourlyPrecipIn,Conditions,Clouds,dailyrainin,SoftwareType,DateUTC
2013-11-09 00:03:00,56.7,56.3,30.01,South,180,0.0,0.0,99,0.00,,,0.00,meteohub,2013-11-09 08:03:00,
2013-11-09 00:08:00,56.7,56.3,30.02,South,180,0.0,0.0,99,0.00,,,0.00,meteohub,2013-11-09 08:08:00,
2013-11-09 00:13:00,56.5,56.1,30.02,South,180,0.0,0.0,99,0.00,,,0.00,meteohub,2013-11-09 08:13:00,
2013-11-09 00:18:00,56.7,56.3,30.02,South,180,0.0,0.0,99,0.00,,,0.00,meteohub,2013-11-09 08:18:00,
2013-11-09 00:23:00,56.8,56.5,30.02,South,180,0.0,0.0,99,0.00,,,0.00,meteohub,2013-11-09 08:23:00,
2013-11-09 00:28:00,57.2,56.8,30.02,South,180,0.0,0.0,99,0.00,,,0.00,meteohub,2013-11-09 08:28:00,
2013-11-09 00:33:00,57.4,57.0,30.02,South,180,0.0,0.0,99,0.00,,,0.00,meteohub,2013-11-09 08:33:00,
2013-11-09 00:38:00,57.0,56.7,30.01,South,180,0.0,0.0,99,0.00,,,0.00,meteohub,2013-11-09 08:38:00,
2013-11-09 00:43:00,56.8,56.5,30.01,South,180,0.0,0.0,99,0.00,,,0.00,meteohub,2013-11-09 08:43:00,
2013-11-09 00:48:00,56.5,56.1,30.01,South,180,0.0,0.0,99,0.00,,,0.00,meteohub,2013-11-09 08:48:00,
2013-11-09 00:53:00,56.5,56.1,30.01,South,180,0.0,0.0,99,0.00,,,0.00,meteohub,2013-11-09 08:53:00,
2013-11-09 00:58:00,56.3,55.9,30.01,South,180,0.0,0.0,99,0.00,,,0.00,meteohub,2013-11-09 08:58:00,
2013-11-09 01:03:00,56.3,55.9,30.01,South,180,0.0,0.0,99,0.00,,,0.00,meteohub,2013-11-09 09:03:00,
2013-11-09 01:08:00,56.1,55.8,30.01,South,180,0.0,0.0,99,0.00,,,0.00,meteohub,2013-11-09 09:08:00,
2013-11-09 01:14:00,56.1,55.8,30.01,South,180,0.0,0.0,99,0.00,,,0.00,meteohub,2013-11-09 09:14:00,
2013-11-09 01:19:00,55.8,55.4,30.01,South,180,0.0,0.0,99,0.00,,,0.00,meteohub,2013-11-09 09:19:00,
2013-11-09 01:24:00,55.8,55.4,30.01,South,180,0.0,0.0,99,0.00,,,0.00,meteohub,2013-11-09 09:24:00,
2013-11-09 01:29:00,55.8,55.4,30.01,South,180,0.0,0.0,99,0.00,,,0.00,meteohub,2013-11-09 09:29:00,
2013-11-09 01:34:00,55.6,55.2,30.01,South,180,0.0,0.0,99,0.00,,,0.00,meteohub,2013-11-09 09:34:00,
2013-11-09 01:39:00,55.6,55.2,30.01,South,180,0.0,0.0,99,0.00,,,0.00,meteohub,2013-11-09 09:39:00,
2013-11-09 01:44:00,55.6,55.2,30.01,South,180,0.0,0.0,99,0.00,,,0.00,meteohub,2013-11-09 09:44:00,
2013-11-09 01:49:00,55.8,55.4,30.01,South,180,2.0,0.0,99,0.00,,,0.00,meteohub,2013-11-09 09:49:00,
2013-11-09 01:54:00,55.6,55.2,30.01,South,180,2.0,2.0,99,0.00,,,0.00,meteohub,2013-11-09 09:54:00,
2013-11-09 01:59:00,55.6,55.2,30.01,South,180,0.0,2.0,99,0.00,,,0.00,meteohub,2013-11-09 09:59:00,
2013-11-09 02:04:00,55.4,55.0,30.01,South,180,2.0,2.0,99,0.00,,,0.00,meteohub,2013-11-09 10:04:00,
2013-11-09 02:09:00,55.2,54.9,30.01,South,180,0.0,2.0,99,0.00,,,0.00,meteohub,2013-11-09 10:09:00,
2013-11-09 02:14:00,55.2,54.9,30.01,South,180,0.0,2.0,99,0.00,,,0.00,meteohub,2013-11-09 10:14:00,
2013-11-09 02:19:00,55.0,54.7,30.01,South,180,0.0,2.0,99,0.00,,,0.00,meteohub,2013-11-09 10:19:00,
2013-11-09 02:24:00,55.0,54.7,30.01,South,180,0.0,0.0,99,0.01,,,0.01,meteohub,2013-11-09 10:24:00,
2013-11-09 02:29:00,54.7,54.3,30.01,South,180,0.0,0.0,99,0.01,,,0.01,meteohub,2013-11-09 10:29:00,
2013-11-09 02:34:00,54.7,54.3,30.01,South,180,0.0,0.0,99,0.01,,,0.01,meteohub,2013-11-09 10:34:00,
2013-11-09 02:39:00,54.5,54.1,30.01,South,180,0.0,0.0,99,0.01,,,0.01,meteohub,2013-11-09 10:39:00,
2013-11-09 02:44:00,54.1,53.8,30.01,South,180,0.0,0.0,99,0.01,,,0.01,meteohub,2013-11-09 10:44:00,
2013-11-09 02:49:00,53.8,53.4,30.01,South,180,0.0,0.0,99,0.01,,,0.01,meteohub,2013-11-09 10:49:00,
2013-11-09 02:54:00,53.2,52.9,30.01,South,180,0.0,0.0,99,0.01,,,0.01,meteohub,2013-11-09 10:54:00,
2013-11-09 02:59:00,53.2,52.9,30.01,South,180,0.0,0.0,99,0.01,,,0.01,meteohub,2013-11-09 10:59:00,
2013-11-09 03:04:00,53.4,53.1,30.01,South,180,0.0,0.0,99,0.01,,,0.01,meteohub,2013-11-09 11:04:00,
2013-11-09 03:09:00,53.6,53.2,30.01,South,180,0.0,0.0,99,0.01,,,0.01,meteohub,2013-11-09 11:09:00,
2013-11-09 03:14:00,53.6,53.2,30.01,South,180,0.0,0.0,99,0.01,,,0.01,meteohub,2013-11-09 11:14:00,
2013-11-09 03:19:00,54.1,53.8,30.01,South,180,2.0,0.0,99,0.00,,,0.01,meteohub,2013-11-09 11:19:00,
2013-11-09 03:24:00,54.5,54.1,30.02,SSE,158,2.0,2.0,99,0.00,,,0.01,meteohub,2013-11-09 11:24:00,
2013-11-09 03:29:00,54.9,54.5,30.02,South,180,2.0,3.0,99,0.00,,,0.01,meteohub,2013-11-09 11:29:00,
2013-11-09 03:34:00,55.2,54.9,30.02,SW,225,2.0,3.0,99,0.00,,,0.01,meteohub,2013-11-09 11:34:00,
2013-11-09 03:39:00,55.6,55.2,30.02,South,180,3.0,3.0,99,0.00,,,0.01,meteohub,2013-11-09 11:39:00,
2013-11-09 03:44:00,55.6,55.2,30.02,South,180,2.0,2.0,99,0.00,,,0.01,meteohub,2013-11-09 11:44:00,
2013-11-09 03:49:00,55.6,55.2,30.02,SE,135,2.0,3.0,99,0.00,,,0.01,meteohub,2013-11-09 11:49:00,
2013-11-09 03:54:00,55.8,55.4,30.02,SSE,158,2.0,3.0,99,0.00,,,0.01,meteohub,2013-11-09 11:54:00,
2013-11-09 03:59:00,55.8,55.4,30.02,SE,135,2.0,3.0,99,0.00,,,0.01,meteohub,2013-11-09 11:59:00,
2013-11-09 04:04:00,55.9,55.6,30.02,SE,135,2.0,2.0,99,0.00,,,0.01,meteohub,2013-11-09 12:04:00,
2013-11-09 04:09:00,55.9,55.6,30.02,SE,135,0.0,2.0,99,0.00,,,0.01,meteohub,2013-11-09 12:09:00,
2013-11-09 04:14:00,55.9,55.6,30.02,SE,135,2.0,3.0,99,0.00,,,0.01,meteohub,2013-11-09 12:14:00,
2013-11-09 04:19:00,55.9,55.6,30.02,NW,315,0.0,3.0,99,0.00,,,0.01,meteohub,2013-11-09 12:19:00,
2013-11-09 04:24:00,55.8,55.4,30.02,NW,315,0.0,2.0,99,0.00,,,0.01,meteohub,2013-11-09 12:24:00,
2013-11-09 04:29:00,55.8,55.4,30.02,WNW,293,0.0,2.0,99,0.00,,,0.01,meteohub,2013-11-09 12:29:00,
2013-11-09 04:34:00,55.8,55.4,30.03,SSW,203,1.0,2.0,99,0.00,,,0.01,meteohub,2013-11-09 12:34:00,
2013-11-09 04:39:00,55.8,55.4,30.02,SW,225,2.0,2.0,99,0.00,,,0.01,meteohub,2013-11-09 12:39:00,
2013-11-09 04:44:00,55.8,55.4,30.02,West,270,2.0,3.0,99,0.00,,,0.01,meteohub,2013-11-09 12:44:00,
2013-11-09 04:49:00,55.6,55.2,30.03,South,180,2.0,3.0,99,0.00,,,0.01,meteohub,2013-11-09 12:49:00,
2013-11-09 04:54:00,55.6,55.2,30.02,South,180,0.0,2.0,99,0.00,,,0.01,meteohub,2013-11-09 12:54:00,
2013-11-09 04:59:00,55.6,55.2,30.03,South,180,2.0,2.0,99,0.00,,,0.01,meteohub,2013-11-09 12:59:00,
2013-11-09 05:04:00,55.6,55.2,30.03,South,180,2.0,2.0,99,0.00,,,0.01,meteohub,2013-11-09 13:04:00,
2013-11-09 05:09:00,55.6,55.2,30.02,South,180,2.0,2.0,99,0.00,,,0.01,meteohub,2013-11-09 13:09:00,
2013-11-09 05:14:00,55.6,55.2,30.03,SE,135,3.0,3.0,99,0.00,,,0.01,meteohub,2013-11-09 13:14:00,
2013-11-09 05:19:00,55.6,55.2,30.03,SE,135,1.0,3.0,99,0.00,,,0.01,meteohub,2013-11-09 13:19:00,
2013-11-09 05:24:00,55.6,55.2,30.03,SE,135,2.0,3.0,99,0.00,,,0.01,meteohub,2013-11-09 13:24:00,
2013-11-09 05:29:00,55.6,55.2,30.03,SE,135,2.0,3.0,99,0.00,,,0.01,meteohub,2013-11-09 13:29:00,
2013-11-09 05:34:00,55.6,55.2,30.03,SE,135,0.0,2.0,99,0.00,,,0.01,meteohub,2013-11-09 13:34:00,
2013-11-09 05:39:00,55.6,55.2,30.03,SE,135,1.0,2.0,99,0.00,,,0.01,meteohub,2013-11-09 13:39:00,
2013-11-09 05:44:00,55.8,55.4,30.04,SE,135,1.0,2.0,99,0.00,,,0.01,meteohub,2013-11-09 13:44:00,
2013-11-09 05:49:00,55.8,55.4,30.04,SE,135,0.0,2.0,99,0.00,,,0.01,meteohub,2013-11-09 13:49:00,
2013-11-09 05:54:00,55.8,55.4,30.04,ESE,113,3.0,3.0,99,0.00,,,0.01,meteohub,2013-11-09 13:54:00,
2013-11-09 05:59:00,55.8,55.4,30.04,SE,135,2.0,2.0,99,0.00,,,0.01,meteohub,2013-11-09 13:59:00,
2013-11-09 06:04:00,55.8,55.4,30.04,SE,135,2.0,3.0,99,0.00,,,0.01,meteohub,2013-11-09 14:04:00,
2013-11-09 06:09:00,55.8,55.4,30.04,SE,135,1.0,3.0,99,0.00,,,0.01,meteohub,2013-11-09 14:09:00,
2013-11-09 06:14:00,55.8,55.4,30.04,SE,135,2.0,2.0,99,0.00,,,0.01,meteohub,2013-11-09 14:14:00,
2013-11-09 06:19:00,55.8,55.4,30.04,South,180,1.0,2.0,99,0.00,,,0.01,meteohub,2013-11-09 14:19:00,
2013-11-09 06:24:00,55.8,55.4,30.04,South,180,3.0,3.0,99,0.00,,,0.01,meteohub,2013-11-09 14:24:00,
2013-11-09 06:29:00,55.8,55.4,30.04,South,180,1.0,3.0,99,0.00,,,0.01,meteohub,2013-11-09 14:29:00,
2013-11-09 06:34:00,55.8,55.4,30.04,SE,135,2.0,3.0,99,0.00,,,0.01,meteohub,2013-11-09 14:34:00,
2013-11-09 06:39:00,55.8,55.4,30.04,NE,45,1.0,3.0,99,0.00,,,0.01,meteohub,2013-11-09 14:39:00,
2013-11-09 06:44:00,55.6,55.2,30.05,SE,135,0.0,3.0,99,0.00,,,0.01,meteohub,2013-11-09 14:44:00,
2013-11-09 06:49:00,55.6,55.2,30.05,SE,135,0.0,3.0,99,0.00,,,0.01,meteohub,2013-11-09 14:49:00,
2013-11-09 06:54:00,55.8,55.4,30.05,SE,135,0.0,3.0,99,0.00,,,0.01,meteohub,2013-11-09 14:54:00,
2013-11-09 06:59:00,56.1,55.8,30.05,SE,135,2.0,2.0,99,0.00,,,0.01,meteohub,2013-11-09 14:59:00,
2013-11-09 07:04:00,57.0,56.7,30.05,East,90,3.0,3.0,99,0.00,,,0.01,meteohub,2013-11-09 15:04:00,
2013-11-09 07:09:00,56.8,56.5,30.06,East,90,2.0,2.0,99,0.00,,,0.01,meteohub,2013-11-09 15:09:00,
2013-11-09 07:14:00,56.7,56.3,30.06,East,90,2.0,3.0,99,0.00,,,0.01,meteohub,2013-11-09 15:14:00,
2013-11-09 07:19:00,56.7,56.3,30.06,North,0,1.0,3.0,99,0.00,,,0.01,meteohub,2013-11-09 15:19:00,
2013-11-09 07:24:00,56.7,56.3,30.06,North,0,1.0,2.0,99,0.00,,,0.01,meteohub,2013-11-09 15:24:00,
2013-11-09 07:29:00,56.7,56.3,30.07,North,0,0.0,2.0,99,0.00,,,0.01,meteohub,2013-11-09 15:29:00,
2013-11-09 07:34:00,56.7,56.3,30.06,East,90,2.0,2.0,99,0.00,,,0.01,meteohub,2013-11-09 15:34:00,
2013-11-09 07:39:00,56.5,56.1,30.07,SE,135,2.0,2.0,99,0.00,,,0.01,meteohub,2013-11-09 15:39:00,
2013-11-09 07:44:00,56.5,56.1,30.07,ESE,113,2.0,2.0,99,0.00,,,0.01,meteohub,2013-11-09 15:44:00,
2013-11-09 07:49:00,56.5,56.1,30.06,SE,135,2.0,2.0,99,0.00,,,0.01,meteohub,2013-11-09 15:49:00,
2013-11-09 07:54:00,57.0,56.7,30.07,NNE,23,2.0,3.0,99,0.00,,,0.01,meteohub,2013-11-09 15:54:00,
2013-11-09 07:59:00,57.7,57.4,30.07,NE,45,2.0,3.0,99,0.00,,,0.01,meteohub,2013-11-09 15:59:00,
2013-11-09 08:04:00,57.7,57.4,30.07,East,90,1.0,3.0,99,0.00,,,0.01,meteohub,2013-11-09 16:04:00,
2013-11-09 08:09:00,60.3,59.9,30.08,SE,135,2.0,4.0,99,0.00,,,0.01,meteohub,2013-11-09 16:09:00,
2013-11-09 08:14:00,61.0,60.6,30.08,SE,135,0.0,4.0,99,0.00,,,0.01,meteohub,2013-11-09 16:14:00,
2013-11-09 08:19:00,62.4,62.1,30.08,SE,135,0.0,4.0,99,0.00,,,0.01,meteohub,2013-11-09 16:19:00,
2013-11-09 08:24:00,63.1,62.8,30.07,SE,135,1.0,2.0,99,0.00,,,0.01,meteohub,2013-11-09 16:24:00,
2013-11-09 08:29:00,64.6,64.2,30.07,NE,45,2.0,2.0,99,0.00,,,0.01,meteohub,2013-11-09 16:29:00,
2013-11-09 08:34:00,63.7,62.8,30.08,NE,45,4.0,4.0,97,0.00,,,0.01,meteohub,2013-11-09 16:34:00,
2013-11-09 08:39:00,63.0,61.5,30.08,North,0,3.0,4.0,95,0.00,,,0.01,meteohub,2013-11-09 16:39:00,
2013-11-09 08:44:00,63.0,61.9,30.07,NNE,23,2.0,4.0,96,0.00,,,0.01,meteohub,2013-11-09 16:44:00,
2013-11-09 08:49:00,63.9,61.5,30.08,NNE,23,2.0,4.0,92,0.00,,,0.01,meteohub,2013-11-09 16:49:00,
2013-11-09 08:54:00,66.7,64.6,30.08,NNE,23,2.0,4.0,93,0.00,,,0.01,meteohub,2013-11-09 16:54:00,
2013-11-09 08:59:00,68.2,62.8,30.08,SE,135,1.0,4.0,83,0.00,,,0.01,meteohub,2013-11-09 16:59:00,
2013-11-09 09:04:00,69.1,62.6,30.08,SE,135,2.0,4.0,80,0.00,,,0.01,meteohub,2013-11-09 17:04:00,
2013-11-09 09:09:00,69.1,60.4,30.07,SE,135,3.0,4.0,74,0.00,,,0.01,meteohub,2013-11-09 17:09:00,
2013-11-09 09:14:00,68.5,58.3,30.07,South,180,2.0,4.0,70,0.00,,,0.01,meteohub,2013-11-09 17:14:00,
2013-11-09 09:19:00,68.7,59.4,30.07,SE,135,2.0,4.0,72,0.00,,,0.01,meteohub,2013-11-09 17:19:00,
2013-11-09 09:24:00,69.8,60.4,30.07,NE,45,1.0,4.0,72,0.00,,,0.01,meteohub,2013-11-09 17:24:00,
2013-11-09 09:29:00,71.4,58.6,30.08,SE,135,2.0,4.0,64,0.00,,,0.01,meteohub,2013-11-09 17:29:00,
2013-11-09 09:34:00,70.5,58.1,30.07,NE,45,2.0,4.0,65,0.00,,,0.01,meteohub,2013-11-09 17:34:00,
2013-11-09 09:39:00,69.3,57.4,30.07,SE,135,2.0,4.0,66,0.00,,,0.01,meteohub,2013-11-09 17:39:00,
2013-11-09 09:44:00,69.8,57.0,30.07,NE,45,2.0,4.0,64,0.00,,,0.01,meteohub,2013-11-09 17:44:00,
2013-11-09 09:49:00,70.5,57.7,30.07,ESE,113,2.0,4.0,64,0.00,,,0.01,meteohub,2013-11-09 17:49:00,
2013-11-09 09:54:00,70.7,57.0,30.07,NE,45,2.0,4.0,62,0.00,,,0.01,meteohub,2013-11-09 17:54:00,
2013-11-09 09:59:00,70.0,55.9,30.07,South,180,3.0,4.0,61,0.00,,,0.01,meteohub,2013-11-09 17:59:00,
2013-11-09 10:04:00,69.8,55.2,30.07,ESE,113,4.0,4.0,60,0.00,,,0.01,meteohub,2013-11-09 18:04:00,
2013-11-09 10:09:00,69.6,55.0,30.07,South,180,2.0,4.0,60,0.00,,,0.01,meteohub,2013-11-09 18:09:00,
2013-11-09 10:14:00,70.0,55.0,30.07,South,180,3.0,4.0,59,0.00,,,0.01,meteohub,2013-11-09 18:14:00,
2013-11-09 10:19:00,69.8,54.9,30.07,SE,135,3.0,4.0,59,0.00,,,0.01,meteohub,2013-11-09 18:19:00,
2013-11-09 10:24:00,69.4,55.9,30.07,SSE,158,3.0,4.0,62,0.00,,,0.01,meteohub,2013-11-09 18:24:00,
2013-11-09 10:29:00,69.6,54.7,30.07,South,180,2.0,4.0,59,0.00,,,0.01,meteohub,2013-11-09 18:29:00,
2013-11-09 10:34:00,70.0,55.0,30.07,East,90,2.0,4.0,59,0.00,,,0.01,meteohub,2013-11-09 18:34:00,
2013-11-09 10:40:00,70.7,55.6,30.07,SE,135,2.0,4.0,59,0.00,,,0.01,meteohub,2013-11-09 18:40:00,
2013-11-09 10:45:00,71.2,54.3,30.06,SE,135,1.0,3.0,55,0.00,,,0.01,meteohub,2013-11-09 18:45:00,
2013-11-09 10:50:00,72.5,54.3,30.06,East,90,1.0,3.0,53,0.00,,,0.01,meteohub,2013-11-09 18:50:00,
2013-11-09 10:55:00,73.4,52.0,30.06,WNW,293,4.0,4.0,47,0.00,,,0.01,meteohub,2013-11-09 18:55:00,
2013-11-09 11:00:00,73.6,49.6,30.06,NW,315,4.0,4.0,43,0.00,,,0.01,meteohub,2013-11-09 19:00:00,
2013-11-09 11:05:00,72.9,49.6,30.06,SW,225,2.0,4.0,44,0.00,,,0.01,meteohub,2013-11-09 19:05:00,
2013-11-09 11:10:00,73.0,50.4,30.06,South,180,1.0,4.0,45,0.00,,,0.01,meteohub,2013-11-09 19:10:00,
2013-11-09 11:15:00,74.1,50.2,30.05,SE,135,2.0,4.0,43,0.00,,,0.01,meteohub,2013-11-09 19:15:00,
2013-11-09 11:20:00,75.6,50.2,30.05,NE,45,2.0,3.0,41,0.00,,,0.01,meteohub,2013-11-09 19:20:00,
2013-11-09 11:25:00,77.4,49.8,30.05,East,90,2.0,3.0,38,0.00,,,0.01,meteohub,2013-11-09 19:25:00,
2013-11-09 11:30:00,78.1,48.2,30.05,West,270,5.0,5.0,35,0.00,,,0.01,meteohub,2013-11-09 19:30:00,
2013-11-09 11:35:00,77.7,48.6,30.04,North,0,2.0,5.0,36,0.00,,,0.01,meteohub,2013-11-09 19:35:00,
2013-11-09 11:40:00,79.2,47.7,30.05,North,0,2.0,5.0,33,0.00,,,0.01,meteohub,2013-11-09 19:40:00,
2013-11-09 11:45:00,79.7,46.4,30.04,NW,315,4.0,5.0,31,0.00,,,0.01,meteohub,2013-11-09 19:45:00,
2013-11-09 11:50:00,79.9,46.6,30.04,NNE,23,4.0,5.0,31,0.00,,,0.01,meteohub,2013-11-09 19:50:00,
2013-11-09 11:55:00,78.1,49.6,30.04,NW,315,7.0,8.0,37,0.00,,,0.01,meteohub,2013-11-09 19:55:00,
2013-11-09 12:00:00,77.4,49.1,30.04,NW,315,7.0,8.0,37,0.00,,,0.01,meteohub,2013-11-09 20:00:00,
2013-11-09 12:05:00,76.8,47.8,30.03,NW,315,8.0,8.0,36,0.00,,,0.01,meteohub,2013-11-09 20:05:00,
2013-11-09 12:10:00,76.3,47.3,30.03,NW,315,8.0,8.0,36,0.00,,,0.01,meteohub,2013-11-09 20:10:00,
2013-11-09 12:15:00,76.1,48.6,30.03,NW,315,8.0,8.0,38,0.00,,,0.01,meteohub,2013-11-09 20:15:00,
2013-11-09 12:20:00,76.1,45.0,30.03,NW,315,9.0,9.0,33,0.00,,,0.01,meteohub,2013-11-09 20:20:00,
2013-11-09 12:25:00,75.9,44.8,30.02,West,270,8.0,9.0,33,0.00,,,0.01,meteohub,2013-11-09 20:25:00,
2013-11-09 12:30:00,75.9,42.3,30.03,NW,315,7.0,9.0,30,0.00,,,0.01,meteohub,2013-11-09 20:30:00,
2013-11-09 12:35:00,75.6,40.1,30.03,NW,315,9.0,9.0,28,0.00,,,0.01,meteohub,2013-11-09 20:35:00,
2013-11-09 12:40:00,75.9,40.5,30.03,NW,315,7.0,9.0,28,0.00,,,0.01,meteohub,2013-11-09 20:40:00,
2013-11-09 12:45:00,75.7,40.3,30.03,NW,315,7.0,9.0,28,0.00,,,0.01,meteohub,2013-11-09 20:45:00,
2013-11-09 12:50:00,74.7,39.4,30.02,NW,315,8.0,10.0,28,0.00,,,0.01,meteohub,2013-11-09 20:50:00,
2013-11-09 12:55:00,74.5,38.3,30.02,WNW,293,10.0,11.0,27,0.00,,,0.01,meteohub,2013-11-09 20:55:00,
2013-11-09 13:00:00,73.9,41.4,30.02,NW,315,9.0,11.0,31,0.00,,,0.01,meteohub,2013-11-09 21:00:00,
2013-11-09 13:05:00,73.0,42.3,30.02,NW,315,6.0,11.0,33,0.00,,,0.01,meteohub,2013-11-09 21:05:00,
2013-11-09 13:10:00,72.7,44.2,30.02,West,270,6.0,11.0,36,0.00,,,0.01,meteohub,2013-11-09 21:10:00,
2013-11-09 13:15:00,72.7,46.2,30.02,NW,315,6.0,11.0,39,0.00,,,0.01,meteohub,2013-11-09 21:15:00,
2013-11-09 13:20:00,72.5,45.5,30.02,NW,315,6.0,10.0,38,0.00,,,0.01,meteohub,2013-11-09 21:20:00,
2013-11-09 13:25:00,72.9,44.4,30.02,West,270,8.0,10.0,36,0.00,,,0.01,meteohub,2013-11-09 21:25:00,
2013-11-09 13:30:00,72.1,45.1,30.02,West,270,8.0,10.0,38,0.00,,,0.01,meteohub,2013-11-09 21:30:00,
2013-11-09 13:35:00,71.4,47.1,30.02,West,270,4.0,8.0,42,0.00,,,0.01,meteohub,2013-11-09 21:35:00,
2013-11-09 13:40:00,72.0,48.2,30.01,WNW,293,7.0,8.0,43,0.00,,,0.01,meteohub,2013-11-09 21:40:00,
2013-11-09 13:45:00,71.8,48.7,30.01,NW,315,10.0,10.0,44,0.00,,,0.01,meteohub,2013-11-09 21:45:00,
2013-11-09 13:50:00,71.2,51.1,30.01,West,270,9.0,10.0,49,0.00,,,0.01,meteohub,2013-11-09 21:50:00,
2013-11-09 13:55:00,71.1,50.9,30.01,West,270,7.0,10.0,49,0.00,,,0.01,meteohub,2013-11-09 21:55:00,
2013-11-09 14:00:00,71.1,50.4,30.02,West,270,7.0,10.0,48,0.00,,,0.01,meteohub,2013-11-09 22:00:00,
2013-11-09 14:05:00,71.6,47.3,30.01,WSW,248,8.0,11.0,42,0.00,,,0.01,meteohub,2013-11-09 22:05:00,
2013-11-09 14:10:00,71.6,49.1,30.01,NW,315,7.0,11.0,45,0.00,,,0.01,meteohub,2013-11-09 22:10:00,
2013-11-09 14:15:00,72.0,48.2,30.01,NW,315,5.0,8.0,43,0.00,,,0.01,meteohub,2013-11-09 22:15:00,
2013-11-09 14:20:00,72.0,51.8,30.01,WNW,293,8.0,8.0,49,0.00,,,0.01,meteohub,2013-11-09 22:20:00,
2013-11-09 14:25:00,72.1,50.2,30.01,West,270,7.0,9.0,46,0.00,,,0.01,meteohub,2013-11-09 22:25:00,
2013-11-09 14:30:00,72.1,52.5,30.01,West,270,8.0,9.0,50,0.00,,,0.01,meteohub,2013-11-09 22:30:00,
2013-11-09 14:35:00,72.3,55.2,30.01,WNW,293,6.0,9.0,55,0.00,,,0.01,meteohub,2013-11-09 22:35:00,
2013-11-09 14:40:00,72.7,53.4,30.01,West,270,6.0,8.0,51,0.00,,,0.01,meteohub,2013-11-09 22:40:00,
2013-11-09 14:45:00,72.5,54.9,30.01,West,270,5.0,8.0,54,0.00,,,0.01,meteohub,2013-11-09 22:45:00,
2013-11-09 14:50:00,72.9,56.7,30.01,West,270,5.0,8.0,57,0.00,,,0.01,meteohub,2013-11-09 22:50:00,
2013-11-09 14:55:00,72.1,57.9,30.01,West,270,5.0,8.0,61,0.00,,,0.01,meteohub,2013-11-09 22:55:00,
2013-11-09 15:00:00,72.7,56.5,30.01,West,270,7.0,8.0,57,0.00,,,0.01,meteohub,2013-11-09 23:00:00,
2013-11-09 15:05:00,72.1,57.0,30.01,West,270,5.0,8.0,59,0.00,,,0.01,meteohub,2013-11-09 23:05:00,
2013-11-09 15:10:00,72.1,57.9,30.01,WNW,293,6.0,7.0,61,0.00,,,0.01,meteohub,2013-11-09 23:10:00,
2013-11-09 15:16:00,72.0,58.6,30.01,NW,315,4.0,7.0,63,0.00,,,0.01,meteohub,2013-11-09 23:16:00,
2013-11-09 15:21:00,71.4,58.6,30.01,West,270,3.0,7.0,64,0.00,,,0.01,meteohub,2013-11-09 23:21:00,
2013-11-09 15:26:00,71.1,59.2,30.01,West,270,6.0,7.0,66,0.00,,,0.01,meteohub,2013-11-09 23:26:00,
2013-11-09 15:31:00,70.5,59.9,30.01,NW,315,7.0,8.0,69,0.00,,,0.01,meteohub,2013-11-09 23:31:00,
2013-11-09 15:36:00,69.6,59.0,30.01,NW,315,9.0,9.0,69,0.00,,,0.01,meteohub,2013-11-09 23:36:00,
2013-11-09 15:41:00,69.1,60.4,30.01,WNW,293,8.0,9.0,74,0.00,,,0.01,meteohub,2013-11-09 23:41:00,
2013-11-09 15:46:00,68.7,60.8,30.01,WNW,293,9.0,9.0,76,0.00,,,0.01,meteohub,2013-11-09 23:46:00,
2013-11-09 15:51:00,68.2,61.0,30.01,West,270,7.0,9.0,78,0.00,,,0.01,meteohub,2013-11-09 23:51:00,
2013-11-09 15:56:00,67.5,61.7,30.01,SW,225,6.0,9.0,82,0.00,,,0.01,meteohub,2013-11-09 23:56:00,
2013-11-09 16:01:00,67.1,62.4,30.01,NW,315,5.0,9.0,85,0.00,,,0.01,meteohub,2013-11-10 00:01:00,
2013-11-09 16:06:00,66.6,61.9,30.01,West,270,7.0,9.0,85,0.00,,,0.01,meteohub,2013-11-10 00:06:00,
2013-11-09 16:11:00,66.0,62.1,30.01,West,270,7.0,8.0,87,0.00,,,0.01,meteohub,2013-11-10 00:11:00,
2013-11-09 16:16:00,65.7,62.2,30.01,NW,315,5.0,9.0,89,0.00,,,0.01,meteohub,2013-11-10 00:16:00,
2013-11-09 16:21:00,65.5,62.4,30.01,West,270,8.0,9.0,90,0.00,,,0.01,meteohub,2013-11-10 00:21:00,
2013-11-09 16:26:00,65.1,62.1,30.01,West,270,8.0,9.0,90,0.00,,,0.01,meteohub,2013-11-10 00:26:00,
2013-11-09 16:31:00,64.6,62.2,30.01,North,0,7.0,10.0,92,0.00,,,0.01,meteohub,2013-11-10 00:31:00,
2013-11-09 16:36:00,64.2,62.2,30.01,NW,315,5.0,10.0,93,0.00,,,0.01,meteohub,2013-11-10 00:36:00,
2013-11-09 16:41:00,63.5,61.7,30.01,West,270,4.0,10.0,94,0.00,,,0.01,meteohub,2013-11-10 00:41:00,
2013-11-09 16:46:00,63.1,62.1,30.01,NW,315,4.0,7.0,96,0.00,,,0.01,meteohub,2013-11-10 00:46:00,
2013-11-09 16:51:00,63.0,62.1,30.01,NW,315,5.0,7.0,97,0.00,,,0.01,meteohub,2013-11-10 00:51:00,
2013-11-09 16:56:00,62.6,62.1,30.01,NW,315,4.0,8.0,98,0.00,,,0.01,meteohub,2013-11-10 00:56:00,
2013-11-09 17:01:00,62.2,61.9,30.02,NW,315,6.0,8.0,99,0.00,,,0.01,meteohub,2013-11-10 01:01:00,
2013-11-09 17:06:00,62.1,61.7,30.02,NW,315,4.0,7.0,99,0.00,,,0.01,meteohub,2013-11-10 01:06:00,
2013-11-09 17:11:00,61.9,61.5,30.02,WNW,293,4.0,6.0,99,0.00,,,0.01,meteohub,2013-11-10 01:11:00,
2013-11-09 17:16:00,61.7,61.3,30.02,WNW,293,4.0,6.0,99,0.00,,,0.01,meteohub,2013-11-10 01:16:00,
2013-11-09 17:21:00,61.5,61.2,30.03,NW,315,4.0,5.0,99,0.00,,,0.01,meteohub,2013-11-10 01:21:00,
2013-11-09 17:26:00,61.3,61.0,30.03,NW,315,4.0,5.0,99,0.00,,,0.01,meteohub,2013-11-10 01:26:00,
2013-11-09 17:31:00,61.2,60.8,30.03,NW,315,4.0,5.0,99,0.00,,,0.01,meteohub,2013-11-10 01:31:00,
2013-11-09 17:36:00,61.2,60.8,30.03,WNW,293,5.0,6.0,99,0.00,,,0.01,meteohub,2013-11-10 01:36:00,
2013-11-09 17:41:00,61.0,60.6,30.03,NW,315,4.0,6.0,99,0.00,,,0.01,meteohub,2013-11-10 01:41:00,
2013-11-09 17:47:00,61.0,60.6,30.04,NW,315,4.0,6.0,99,0.00,,,0.01,meteohub,2013-11-10 01:47:00,
2013-11-09 17:52:00,60.8,60.4,30.04,NW,315,2.0,5.0,99,0.00,,,0.01,meteohub,2013-11-10 01:52:00,
2013-11-09 17:57:00,60.6,60.3,30.04,NW,315,2.0,4.0,99,0.00,,,0.01,meteohub,2013-11-10 01:57:00,
2013-11-09 18:02:00,60.6,60.3,30.04,NW,315,2.0,4.0,99,0.00,,,0.01,meteohub,2013-11-10 02:02:00,
2013-11-09 18:07:00,60.4,60.1,30.04,NW,315,0.0,4.0,99,0.00,,,0.01,meteohub,2013-11-10 02:07:00,
2013-11-09 18:12:00,60.1,59.7,30.05,NW,315,0.0,3.0,99,0.00,,,0.01,meteohub,2013-11-10 02:12:00,
2013-11-09 18:17:00,59.9,59.5,30.05,NW,315,0.0,2.0,99,0.00,,,0.01,meteohub,2013-11-10 02:17:00,
2013-11-09 18:22:00,59.4,59.0,30.05,NW,315,0.0,0.0,99,0.00,,,0.01,meteohub,2013-11-10 02:22:00,
2013-11-09 18:27:00,59.4,59.0,30.05,NW,315,0.0,0.0,99,0.00,,,0.01,meteohub,2013-11-10 02:27:00,
2013-11-09 18:32:00,59.4,59.0,30.06,NW,315,0.0,0.0,99,0.00,,,0.01,meteohub,2013-11-10 02:32:00,
2013-11-09 18:37:00,59.2,58.8,30.05,NW,315,0.0,1.0,99,0.00,,,0.01,meteohub,2013-11-10 02:37:00,
2013-11-09 18:42:00,59.0,58.6,30.05,NW,315,0.0,1.0,99,0.00,,,0.01,meteohub,2013-11-10 02:42:00,
2013-11-09 18:47:00,59.0,58.6,30.05,NW,315,0.0,1.0,99,0.00,,,0.01,meteohub,2013-11-10 02:47:00,
2013-11-09 18:52:00,58.8,58.5,30.06,NW,315,0.0,1.0,99,0.00,,,0.01,meteohub,2013-11-10 02:52:00,
2013-11-09 18:57:00,58.5,58.1,30.06,NW,315,0.0,1.0,99,0.00,,,0.01,meteohub,2013-11-10 02:57:00,
2013-11-09 19:02:00,58.3,57.9,30.06,NW,315,0.0,0.0,99,0.00,,,0.01,meteohub,2013-11-10 03:02:00,
2013-11-09 19:07:00,58.1,57.7,30.06,NW,315,0.0,0.0,99,0.00,,,0.01,meteohub,2013-11-10 03:07:00,
2013-11-09 19:12:00,57.6,57.2,30.06,NW,315,0.0,0.0,99,0.00,,,0.01,meteohub,2013-11-10 03:12:00,
2013-11-09 19:17:00,57.4,57.0,30.06,NW,315,0.0,0.0,99,0.00,,,0.01,meteohub,2013-11-10 03:17:00,
2013-11-09 19:22:00,57.0,56.7,30.06,NW,315,0.0,0.0,99,0.00,,,0.01,meteohub,2013-11-10 03:22:00,
2013-11-09 19:27:00,56.8,56.5,30.07,NW,315,0.0,0.0,99,0.00,,,0.01,meteohub,2013-11-10 03:27:00,
2013-11-09 19:32:00,56.3,55.9,30.07,NW,315,0.0,0.0,99,0.00,,,0.01,meteohub,2013-11-10 03:32:00,
2013-11-09 19:37:00,56.3,55.9,30.07,NW,315,0.0,0.0,99,0.00,,,0.01,meteohub,2013-11-10 03:37:00,
2013-11-09 19:42:00,56.5,56.1,30.07,NW,315,0.0,0.0,99,0.00,,,0.01,meteohub,2013-11-10 03:42:00,
2013-11-09 19:47:00,56.5,56.1,30.07,NW,315,0.0,0.0,99,0.00,,,0.01,meteohub,2013-11-10 03:47:00,
2013-11-09 19:52:00,55.9,55.6,30.07,NW,315,0.0,0.0,99,0.00,,,0.01,meteohub,2013-11-10 03:52:00,
2013-11-09 19:57:00,55.6,55.2,30.07,NW,315,0.0,0.0,99,0.00,,,0.01,meteohub,2013-11-10 03:57:00,
2013-11-09 20:02:00,55.4,55.0,30.07,NW,315,0.0,0.0,99,0.00,,,0.01,meteohub,2013-11-10 04:02:00,
2013-11-09 20:07:00,55.2,54.9,30.07,NW,315,0.0,0.0,99,0.00,,,0.01,meteohub,2013-11-10 04:07:00,
2013-11-09 20:12:00,54.7,54.3,30.08,NW,315,0.0,0.0,99,0.00,,,0.01,meteohub,2013-11-10 04:12:00,
2013-11-09 20:17:00,54.3,54.0,30.08,NW,315,0.0,0.0,99,0.00,,,0.01,meteohub,2013-11-10 04:17:00,
2013-11-09 20:22:00,54.5,54.1,30.08,NW,315,0.0,0.0,99,0.00,,,0.01,meteohub,2013-11-10 04:22:00,
2013-11-09 20:27:00,54.5,54.1,30.08,NW,315,0.0,0.0,99,0.00,,,0.01,meteohub,2013-11-10 04:27:00,
2013-11-09 20:32:00,54.5,54.1,30.08,NW,315,0.0,0.0,99,0.00,,,0.01,meteohub,2013-11-10 04:32:00,
2013-11-09 20:37:00,54.1,53.8,30.08,NW,315,0.0,0.0,99,0.00,,,0.01,meteohub,2013-11-10 04:37:00,
2013-11-09 20:42:00,54.5,54.1,30.08,NW,315,0.0,0.0,99,0.00,,,0.01,meteohub,2013-11-10 04:42:00,
2013-11-09 20:47:00,54.7,54.3,30.08,NW,315,0.0,0.0,99,0.00,,,0.01,meteohub,2013-11-10 04:47:00,
2013-11-09 20:52:00,54.5,54.1,30.09,NW,315,0.0,0.0,99,0.00,,,0.01,meteohub,2013-11-10 04:52:00,
2013-11-09 20:57:00,54.5,54.1,30.08,NW,315,0.0,0.0,99,0.00,,,0.01,meteohub,2013-11-10 04:57:00,
2013-11-09 21:01:00,54.3,54.0,30.08,NW,315,0.0,0.0,99,0.00,,,0.01,meteohub,2013-11-10 05:01:00,
2013-11-09 21:02:00,54.3,54.0,30.08,NW,315,0.0,0.0,99,0.00,,,0.01,meteohub,2013-11-10 05:02:00,
2013-11-09 21:07:00,54.3,54.0,30.08,NW,315,0.0,0.0,99,0.00,,,0.01,meteohub,2013-11-10 05:07:00,
2013-11-09 21:12:00,54.3,54.0,30.08,NW,315,0.0,0.0,99,0.00,,,0.01,meteohub,2013-11-10 05:12:00,
2013-11-09 21:17:00,54.3,54.0,30.08,NW,315,0.0,0.0,99,0.00,,,0.01,meteohub,2013-11-10 05:17:00,
2013-11-09 21:22:00,54.0,53.6,30.07,NW,315,0.0,0.0,99,0.00,,,0.01,meteohub,2013-11-10 05:22:00,
2013-11-09 21:27:00,54.1,53.8,30.07,NW,315,2.0,0.0,99,0.00,,,0.01,meteohub,2013-11-10 05:27:00,
2013-11-09 21:32:00,54.3,54.0,30.08,NW,315,0.0,2.0,99,0.00,,,0.01,meteohub,2013-11-10 05:32:00,
2013-11-09 21:37:00,54.0,53.6,30.08,NW,315,0.0,2.0,99,0.00,,,0.01,meteohub,2013-11-10 05:37:00,
2013-11-09 21:42:00,53.8,53.4,30.08,NW,315,2.0,2.0,99,0.00,,,0.01,meteohub,2013-11-10 05:42:00,
2013-11-09 21:47:00,53.8,53.4,30.08,NW,315,0.0,2.0,99,0.00,,,0.01,meteohub,2013-11-10 05:47:00,
2013-11-09 21:52:00,53.6,53.2,30.08,NW,315,0.0,2.0,99,0.00,,,0.01,meteohub,2013-11-10 05:52:00,
2013-11-09 21:57:00,53.2,52.9,30.08,NW,315,0.0,2.0,99,0.00,,,0.01,meteohub,2013-11-10 05:57:00,
2013-11-09 22:02:00,53.1,52.7,30.08,NW,315,0.0,2.0,99,0.00,,,0.01,meteohub,2013-11-10 06:02:00,
2013-11-09 22:07:00,53.2,52.9,30.08,NW,315,0.0,0.0,99,0.00,,,0.01,meteohub,2013-11-10 06:07:00,
2013-11-09 22:12:00,53.6,53.2,30.08,NW,315,0.0,0.0,99,0.00,,,0.01,meteohub,2013-11-10 06:12:00,
2013-11-09 22:17:00,53.8,53.4,30.08,NW,315,0.0,0.0,99,0.00,,,0.01,meteohub,2013-11-10 06:17:00,
2013-11-09 22:22:00,53.6,53.2,30.08,NW,315,0.0,0.0,99,0.00,,,0.01,meteohub,2013-11-10 06:22:00,
2013-11-09 22:27:00,53.8,53.4,30.07,NW,315,0.0,0.0,99,0.00,,,0.01,meteohub,2013-11-10 06:27:00,
2013-11-09 22:32:00,53.8,53.4,30.07,NW,315,0.0,0.0,99,0.00,,,0.01,meteohub,2013-11-10 06:32:00,
2013-11-09 22:37:00,54.0,53.6,30.07,NW,315,2.0,0.0,99,0.00,,,0.01,meteohub,2013-11-10 06:37:00,
2013-11-09 22:42:00,54.1,53.8,30.06,NW,315,0.0,2.0,99,0.00,,,0.01,meteohub,2013-11-10 06:42:00,
2013-11-09 22:47:00,54.0,53.6,30.07,NW,315,0.0,2.0,99,0.00,,,0.01,meteohub,2013-11-10 06:47:00,
2013-11-09 22:52:00,53.8,53.4,30.07,NW,315,0.0,2.0,99,0.00,,,0.01,meteohub,2013-11-10 06:52:00,
2013-11-09 22:57:00,53.8,53.4,30.06,NW,315,0.0,2.0,99,0.00,,,0.01,meteohub,2013-11-10 06:57:00,
2013-11-09 23:02:00,53.6,53.2,30.06,NW,315,0.0,1.0,99,0.00,,,0.01,meteohub,2013-11-10 07:02:00,
2013-11-09 23:07:00,53.4,53.1,30.06,NW,315,2.0,2.0,99,0.00,,,0.01,meteohub,2013-11-10 07:07:00,
2013-11-09 23:12:00,53.2,52.9,30.06,NW,315,1.0,2.0,99,0.00,,,0.01,meteohub,2013-11-10 07:12:00,
2013-11-09 23:17:00,53.4,53.1,30.06,NE,45,2.0,2.0,99,0.00,,,0.01,meteohub,2013-11-10 07:17:00,
2013-11-09 23:22:00,53.6,53.2,30.06,NE,45,2.0,2.0,99,0.00,,,0.01,meteohub,2013-11-10 07:22:00,
2013-11-09 23:27:00,54.1,53.8,30.06,NE,45,0.0,2.0,99,0.00,,,0.01,meteohub,2013-11-10 07:27:00,
2013-11-09 23:32:00,54.3,54.0,30.06,NE,45,0.0,2.0,99,0.00,,,0.01,meteohub,2013-11-10 07:32:00,
2013-11-09 23:37:00,54.1,53.8,30.06,NE,45,2.0,2.0,99,0.00,,,0.01,meteohub,2013-11-10 07:37:00,
2013-11-09 23:42:00,54.0,53.6,30.06,NE,45,2.0,2.0,99,0.00,,,0.01,meteohub,2013-11-10 07:42:00,
2013-11-09 23:47:00,54.0,53.6,30.05,NE,45,0.0,2.0,99,0.00,,,0.01,meteohub,2013-11-10 07:47:00,
2013-11-09 23:52:00,53.8,53.4,30.05,NE,45,0.0,2.0,99,0.00,,,0.01,meteohub,2013-11-10 07:52:00,
2013-11-09 23:57:00,54.0,53.6,30.05,NE,45,0.0,2.0,99,0.00,,,0.01,meteohub,2013-11-10 07:57:00,